createdAt,value
2019-02-04T00:02:56.920Z,15.00
2019-02-04T00:05:58.301Z,13.80
2019-02-04T00:08:59.631Z,11.83
2019-02-04T00:12:00.050Z,15.83
2019-02-04T00:15:00.748Z,14.77
2019-02-04T00:18:02.312Z,17.83
2019-02-04T00:21:03.006Z,15.93
2019-02-04T00:24:03.641Z,15.37
2019-02-04T00:27:04.120Z,16.47
2019-02-04T00:30:04.924Z,12.43
2019-02-04T00:33:06.069Z,11.93
2019-02-04T00:36:06.472Z,13.17
2019-02-04T00:39:06.909Z,14.87
2019-02-04T00:42:07.281Z,11.50
2019-02-04T00:45:08.029Z,12.87
2019-02-04T00:48:08.876Z,11.87
2019-02-04T00:51:09.372Z,12.03
2019-02-04T00:54:09.966Z,11.83
2019-02-04T00:57:10.637Z,12.27
2019-02-04T01:00:11.366Z,13.10
2019-02-04T01:03:12.977Z,15.70
2019-02-04T01:06:14.324Z,14.83
2019-02-04T01:09:15.216Z,14.67
2019-02-04T01:12:16.505Z,15.10
2019-02-04T01:15:16.753Z,15.43
2019-02-04T01:18:18.005Z,15.33
2019-02-04T01:21:18.709Z,14.27
2019-02-04T01:24:19.099Z,15.40
2019-02-04T01:27:19.725Z,11.80
2019-02-04T01:30:20.712Z,16.60
2019-02-04T01:33:21.019Z,14.23
2019-02-04T01:36:21.950Z,17.97
2019-02-04T01:39:22.833Z,14.17
2019-02-04T01:42:23.070Z,13.50
2019-02-04T01:45:23.494Z,14.37
2019-02-04T01:48:23.924Z,15.60
2019-02-04T01:51:25.039Z,13.87
2019-02-04T01:54:25.505Z,15.50
2019-02-04T01:57:14.003Z,11.57
2019-02-04T02:07:02.240Z,14.03
2019-02-04T02:10:03.382Z,14.00
2019-02-04T02:13:03.715Z,12.70
2019-02-04T02:16:04.542Z,13.57
2019-02-04T02:19:05.159Z,14.33
2019-02-04T02:22:06.273Z,13.80
2019-02-04T02:25:07.500Z,11.80
2019-02-04T02:28:07.825Z,13.93
2019-02-04T02:31:08.183Z,12.23
2019-02-04T02:34:08.849Z,13.47
2019-02-04T02:37:10.045Z,16.13
2019-02-04T02:40:10.280Z,13.77
2019-02-04T02:43:11.879Z,13.53
2019-02-04T02:46:13.307Z,13.73
2019-02-04T02:49:14.661Z,15.13
2019-02-04T02:52:16.028Z,17.50
2019-02-04T02:55:16.645Z,15.43
2019-02-04T02:58:17.337Z,15.83
2019-02-04T03:01:18.058Z,14.07
2019-02-04T03:04:19.283Z,15.47
2019-02-04T03:07:20.174Z,12.90
2019-02-04T03:10:20.534Z,13.50
2019-02-04T03:13:21.729Z,13.93
2019-02-04T03:16:22.046Z,15.43
2019-02-04T03:19:22.481Z,17.60
2019-02-04T03:22:22.994Z,16.37
2019-02-04T03:25:23.872Z,13.07
2019-02-04T03:28:24.461Z,40.30
2019-02-04T03:31:25.124Z,29.40
2019-02-04T03:34:25.649Z,15.07
2019-02-04T03:37:26.134Z,12.90
2019-02-04T03:40:26.700Z,16.97
2019-02-04T03:43:27.992Z,20.67
2019-02-04T03:46:28.259Z,17.53
2019-02-04T03:49:28.702Z,12.60
2019-02-04T03:52:29.656Z,11.85
2019-02-04T03:55:30.809Z,10.13
2019-02-04T03:58:31.859Z,14.30
2019-02-04T04:01:32.647Z,15.83
2019-02-04T04:04:33.893Z,11.10
2019-02-04T04:07:34.591Z,12.70
2019-02-04T04:10:36.053Z,12.40
2019-02-04T04:13:36.894Z,13.57
2019-02-04T04:16:25.624Z,13.83
2019-02-04T04:19:33.487Z,16.33
2019-02-04T04:22:34.289Z,15.20
2019-02-04T04:25:34.837Z,14.00
2019-02-04T04:28:35.353Z,13.17
2019-02-04T04:31:36.094Z,18.23
2019-02-04T04:34:36.832Z,15.60
2019-02-04T04:37:37.372Z,19.30
2019-02-04T04:40:45.222Z,26.60
2019-02-04T04:43:53.368Z,50.30
2019-02-04T04:46:54.396Z,36.77
2019-02-04T04:49:54.972Z,23.77
2019-02-04T04:52:55.549Z,24.03
2019-02-04T04:55:55.853Z,17.77
2019-02-04T04:58:56.702Z,18.50
2019-02-04T05:01:57.104Z,18.90
2019-02-04T05:04:57.920Z,24.47
2019-02-04T05:07:58.719Z,13.97
2019-02-04T05:10:59.695Z,11.50
2019-02-04T05:13:59.979Z,11.43
2019-02-04T05:17:01.173Z,12.73
2019-02-04T05:20:01.957Z,10.03
2019-02-04T05:23:02.602Z,7.27
2019-02-04T05:26:03.466Z,8.67
2019-02-04T05:29:03.834Z,8.73
2019-02-04T05:32:04.178Z,9.40
2019-02-04T05:35:04.412Z,8.40
2019-02-04T05:38:04.702Z,10.53
2019-02-04T05:41:05.253Z,12.23
2019-02-04T05:44:06.001Z,5.67
2019-02-04T05:47:06.494Z,5.87
2019-02-04T05:50:07.181Z,6.87
2019-02-04T05:53:07.537Z,5.60
2019-02-04T05:56:08.365Z,5.73
2019-02-04T05:59:08.943Z,8.20
2019-02-04T06:02:09.610Z,6.53
2019-02-04T06:05:10.321Z,7.97
2019-02-04T06:08:10.970Z,5.40
2019-02-04T06:11:11.493Z,4.83
2019-02-04T06:14:12.242Z,7.73
2019-02-04T06:17:12.658Z,5.20
2019-02-04T06:20:13.369Z,7.17
2019-02-04T06:23:14.020Z,7.47
2019-02-04T06:26:14.909Z,5.53
2019-02-04T06:29:15.446Z,6.60
2019-02-04T06:32:15.930Z,4.70
2019-02-04T06:35:16.730Z,7.67
2019-02-04T06:38:17.504Z,6.23
2019-02-04T06:41:18.085Z,8.57
2019-02-04T06:44:18.886Z,9.03
2019-02-04T06:47:19.409Z,9.53
2019-02-04T06:50:19.869Z,7.03
2019-02-04T06:53:20.600Z,6.83
2019-02-04T06:56:21.267Z,9.87
2019-02-04T06:59:21.704Z,12.57
2019-02-04T07:02:22.417Z,9.30
2019-02-04T07:05:23.359Z,8.87
2019-02-04T07:08:24.089Z,17.57
2019-02-04T07:11:24.797Z,12.93
2019-02-04T07:14:25.605Z,13.43
2019-02-04T07:17:25.918Z,10.70
2019-02-04T07:20:26.943Z,13.27
2019-02-04T07:23:27.394Z,10.97
2019-02-04T07:26:28.233Z,12.73
2019-02-04T07:29:28.994Z,11.10
2019-02-04T07:32:29.585Z,10.33
2019-02-04T07:35:30.214Z,10.00
2019-02-04T07:38:30.616Z,11.33
2019-02-04T07:41:31.118Z,9.97
2019-02-04T07:44:31.521Z,8.13
2019-02-04T07:47:32.105Z,10.97
2019-02-04T07:50:32.419Z,8.93
2019-02-04T07:53:32.817Z,7.77
2019-02-04T07:56:33.126Z,9.93
2019-02-04T07:59:33.621Z,12.00
2019-02-04T08:02:34.061Z,8.37
2019-02-04T08:05:34.825Z,7.80
2019-02-04T08:08:35.917Z,8.67
2019-02-04T08:11:36.533Z,8.70
2019-02-04T08:14:36.838Z,10.40
2019-02-04T08:17:37.157Z,12.03
2019-02-04T08:20:37.498Z,10.47
2019-02-04T08:23:37.817Z,13.07
2019-02-04T08:26:38.312Z,13.23
2019-02-04T08:29:38.850Z,11.23
2019-02-04T08:32:39.641Z,9.03
2019-02-04T08:35:40.061Z,8.23
2019-02-04T08:38:41.489Z,9.93
2019-02-04T08:41:42.303Z,9.20
2019-02-04T08:44:42.745Z,11.57
2019-02-04T08:47:43.254Z,15.90
2019-02-04T08:50:43.808Z,11.53
2019-02-04T08:53:44.993Z,20.00
2019-02-04T08:56:45.434Z,15.37
2019-02-04T08:59:45.735Z,11.63
2019-02-04T09:02:46.366Z,11.53
2019-02-04T09:05:46.910Z,11.67
2019-02-04T09:08:47.884Z,10.63
2019-02-04T09:11:48.267Z,10.57
2019-02-04T09:14:48.777Z,12.90
2019-02-04T09:17:49.680Z,11.07
2019-02-04T09:20:50.188Z,10.80
2019-02-04T09:23:50.556Z,12.50
2019-02-04T09:26:51.986Z,11.30
2019-02-04T09:29:52.363Z,10.87
2019-02-04T09:32:53.695Z,10.65
2019-02-04T09:35:54.917Z,11.83
2019-02-04T09:38:56.508Z,10.93
2019-02-04T09:41:57.749Z,10.90
2019-02-04T09:44:58.920Z,11.28
2019-02-04T09:48:00.345Z,11.90
2019-02-04T09:51:01.458Z,10.40
2019-02-04T09:57:20.137Z,10.75
2019-02-04T10:00:21.986Z,11.28
2019-02-04T10:03:22.826Z,11.73
2019-02-04T10:06:24.377Z,10.45
2019-02-04T10:09:25.731Z,10.05
2019-02-04T10:12:27.451Z,10.58
2019-02-04T10:15:28.968Z,10.53
2019-02-04T10:18:30.537Z,10.82
2019-02-04T10:21:32.313Z,9.25
2019-02-04T10:24:34.007Z,10.35
2019-02-04T10:27:35.577Z,11.00
2019-02-04T10:30:37.454Z,7.95
2019-02-04T10:33:38.484Z,8.13
2019-02-04T10:36:39.206Z,8.33
2019-02-04T10:39:40.508Z,7.67
2019-02-04T10:42:41.790Z,8.83
2019-02-04T10:45:42.226Z,9.23
2019-02-04T10:48:43.573Z,8.47
2019-02-04T10:51:44.484Z,10.83
2019-02-04T10:54:45.008Z,12.30
2019-02-04T10:57:45.469Z,7.27
2019-02-04T11:00:46.298Z,7.93
2019-02-04T11:03:46.795Z,7.03
2019-02-04T11:06:47.593Z,8.23
2019-02-04T11:09:48.006Z,6.70
2019-02-04T11:12:48.596Z,7.47
2019-02-04T11:15:49.559Z,6.40
2019-02-04T11:18:51.208Z,6.60
2019-02-04T11:21:52.525Z,6.28
2019-02-04T11:24:54.438Z,7.37
2019-02-04T11:27:56.105Z,6.72
2019-02-04T11:30:57.584Z,6.62
2019-02-04T11:33:59.297Z,6.22
2019-02-04T11:37:00.489Z,6.20
2019-02-04T11:40:03.886Z,6.03
2019-02-04T11:43:04.945Z,6.35
2019-02-04T11:46:06.860Z,6.17
2019-02-04T11:49:07.996Z,4.92
2019-02-04T11:52:09.262Z,4.90
2019-02-04T11:55:10.865Z,5.03
2019-02-04T11:58:12.121Z,4.95
2019-02-04T12:01:01.668Z,4.97
2019-02-04T12:04:10.174Z,4.35
2019-02-04T12:07:11.703Z,4.17
2019-02-04T12:10:12.559Z,4.17
2019-02-04T12:13:14.318Z,4.05
2019-02-04T12:16:16.063Z,4.35
2019-02-04T12:19:17.410Z,4.47
2019-02-04T12:22:19.001Z,3.95
2019-02-04T12:25:20.647Z,3.83
2019-02-04T12:28:22.126Z,4.28
2019-02-04T12:31:23.557Z,4.15
2019-02-04T12:34:24.926Z,4.28
2019-02-04T12:37:26.621Z,4.10
2019-02-04T12:40:27.862Z,4.00
2019-02-04T12:43:29.191Z,3.90
2019-02-04T12:46:30.192Z,4.50
2019-02-04T12:49:31.373Z,4.40
2019-02-04T12:52:33.246Z,4.12
2019-02-04T12:55:34.943Z,4.25
2019-02-04T12:58:36.604Z,4.15
2019-02-04T13:01:38.128Z,3.87
2019-02-04T13:04:39.804Z,4.92
2019-02-04T13:07:41.508Z,4.90
2019-02-04T13:10:42.898Z,4.87
2019-02-04T13:13:44.399Z,4.33
2019-02-04T13:16:45.802Z,4.72
2019-02-04T13:19:47.292Z,4.80
2019-02-04T13:22:49.041Z,4.83
2019-02-04T13:25:50.878Z,6.60
2019-02-04T13:28:52.630Z,5.78
2019-02-04T13:31:53.846Z,5.10
2019-02-04T13:34:55.603Z,4.70
2019-02-04T13:37:57.416Z,4.75
2019-02-04T13:41:07.601Z,4.83
2019-02-04T13:44:01.466Z,4.55
2019-02-04T13:47:05.665Z,4.83
2019-02-04T13:50:06.001Z,4.40
2019-02-04T13:53:08.210Z,4.47
2019-02-04T13:56:09.954Z,4.67
2019-02-04T13:59:11.414Z,4.45
2019-02-04T14:02:13.467Z,4.37
2019-02-04T14:05:15.325Z,4.30
2019-02-04T14:08:17.020Z,4.78
2019-02-04T14:11:18.749Z,4.42
2019-02-04T14:14:20.063Z,4.55
2019-02-04T14:17:24.277Z,4.17
2019-02-04T14:20:24.660Z,5.42
2019-02-04T14:23:13.985Z,5.00
2019-02-04T14:26:22.532Z,4.97
2019-02-04T14:29:23.637Z,5.17
2019-02-04T14:32:25.444Z,4.67
2019-02-04T14:35:14.813Z,5.28
2019-02-04T14:41:45.593Z,5.92
2019-02-04T14:44:46.921Z,4.80
2019-02-04T14:47:48.521Z,7.87
2019-02-04T14:50:50.257Z,5.67
2019-02-04T14:53:51.288Z,5.62
2019-02-04T14:56:52.825Z,4.92
2019-02-04T14:59:54.359Z,6.58
2019-02-04T15:02:55.947Z,6.00
2019-02-04T15:05:56.880Z,4.80
2019-02-04T15:08:58.639Z,5.08
2019-02-04T15:11:59.358Z,4.90
2019-02-04T15:14:59.699Z,4.87
2019-02-04T15:18:00.358Z,4.70
2019-02-04T15:21:00.956Z,5.70
2019-02-04T15:24:08.900Z,6.13
2019-02-04T15:27:04.818Z,5.97
2019-02-04T15:30:05.146Z,5.23
2019-02-04T15:33:05.622Z,5.50
2019-02-04T15:36:07.114Z,5.03
2019-02-04T15:39:08.327Z,5.60
2019-02-04T15:42:09.150Z,5.50
2019-02-04T15:45:09.447Z,6.57
2019-02-04T15:48:10.442Z,6.60
2019-02-04T15:51:10.888Z,6.20
2019-02-04T15:54:11.922Z,6.77
2019-02-04T15:57:12.373Z,7.17
2019-02-04T16:00:13.614Z,6.67
2019-02-04T16:03:14.369Z,7.97
2019-02-04T16:06:14.846Z,7.63
2019-02-04T16:09:15.434Z,8.70
2019-02-04T16:12:16.642Z,10.27
2019-02-04T16:15:17.225Z,9.33
2019-02-04T16:18:17.690Z,13.17
2019-02-04T16:21:18.852Z,11.50
2019-02-04T16:24:19.315Z,16.43
2019-02-04T16:27:19.649Z,12.40
2019-02-04T16:30:20.314Z,10.93
2019-02-04T16:33:21.562Z,11.37
2019-02-04T16:36:22.076Z,13.17
2019-02-04T16:39:22.634Z,15.27
2019-02-04T16:42:23.163Z,12.17
2019-02-04T16:45:23.527Z,10.60
2019-02-04T16:48:24.267Z,7.80
2019-02-04T16:51:24.774Z,10.97
2019-02-04T16:54:25.646Z,55.60
2019-02-04T16:57:26.646Z,16.10
2019-02-04T17:00:27.916Z,22.33
2019-02-04T17:03:28.363Z,30.13
2019-02-04T17:06:29.664Z,16.93
2019-02-04T17:09:32.274Z,30.63
2019-02-04T17:12:33.681Z,30.53
2019-02-04T17:15:34.316Z,13.77
2019-02-04T17:18:35.247Z,16.27
2019-02-04T17:21:35.897Z,14.03
2019-02-04T17:24:36.419Z,13.03
2019-02-04T17:27:37.041Z,11.50
2019-02-04T17:30:37.465Z,10.47
2019-02-04T17:33:38.407Z,13.40
2019-02-04T17:36:39.647Z,10.10
2019-02-04T17:39:28.462Z,11.47
2019-02-04T17:42:36.408Z,11.50
2019-02-04T17:45:37.718Z,11.40
2019-02-04T17:48:38.099Z,13.23
2019-02-04T17:51:38.412Z,12.37
2019-02-04T17:54:38.791Z,11.30
2019-02-04T17:57:39.279Z,9.67
2019-02-04T18:00:45.096Z,15.80
2019-02-04T18:03:46.166Z,19.10
2019-02-04T18:06:46.621Z,24.87
2019-02-04T18:09:47.002Z,24.80
2019-02-04T18:12:47.289Z,11.50
2019-02-04T18:15:47.874Z,12.80
2019-02-04T18:18:48.401Z,14.43
2019-02-04T18:21:48.899Z,17.53
2019-02-04T18:24:49.719Z,24.63
2019-02-04T18:27:50.307Z,28.53
2019-02-04T18:30:51.685Z,22.67
2019-02-04T18:33:52.117Z,15.43
2019-02-04T18:36:52.561Z,22.97
2019-02-04T18:39:53.166Z,18.40
2019-02-04T18:42:54.311Z,19.90
2019-02-04T18:45:55.243Z,18.03
2019-02-04T18:48:56.939Z,15.67
2019-02-04T18:51:57.972Z,28.43
2019-02-04T18:54:58.690Z,19.63
2019-02-04T18:57:59.252Z,21.40
2019-02-04T19:01:00.724Z,21.50
2019-02-04T19:04:02.257Z,18.00
2019-02-04T19:07:03.448Z,18.23
2019-02-04T19:10:04.115Z,21.40
2019-02-04T19:13:05.320Z,18.37
2019-02-04T19:16:06.090Z,19.37
2019-02-04T19:19:06.559Z,18.77
2019-02-04T19:22:07.922Z,23.33
2019-02-04T19:25:08.469Z,16.77
2019-02-04T19:28:09.184Z,18.07
2019-02-04T19:31:10.898Z,16.77
2019-02-04T19:34:11.427Z,18.93
2019-02-04T19:37:12.779Z,19.10
2019-02-04T19:40:13.428Z,23.20
2019-02-04T19:43:14.268Z,17.70
2019-02-04T19:46:14.892Z,18.20
2019-02-04T19:49:16.025Z,17.50
2019-02-04T19:52:16.554Z,16.20
2019-02-04T19:55:17.664Z,19.53
2019-02-04T19:58:18.323Z,21.90
2019-02-04T20:01:18.727Z,19.23
2019-02-04T20:04:19.252Z,17.43
2019-02-04T20:07:19.751Z,16.90
2019-02-04T20:10:20.402Z,21.63
2019-02-04T20:13:20.843Z,21.37
2019-02-04T20:16:22.136Z,22.60
2019-02-04T20:19:23.267Z,16.70
2019-02-04T20:22:24.563Z,15.50
2019-02-04T20:25:25.725Z,16.07
2019-02-04T20:28:26.289Z,18.33
2019-02-04T20:31:26.741Z,15.13
2019-02-04T20:34:27.387Z,15.20
2019-02-04T20:37:27.927Z,15.90
2019-02-04T20:40:28.944Z,14.63
2019-02-04T20:43:29.690Z,18.30
2019-02-04T20:46:30.046Z,18.20
2019-02-04T20:49:31.484Z,16.90
2019-02-04T20:52:32.328Z,17.63
2019-02-04T20:55:33.747Z,16.80
2019-02-04T20:58:34.375Z,15.53
2019-02-04T21:01:35.412Z,19.20
2019-02-04T21:04:36.671Z,17.67
2019-02-04T21:07:37.107Z,19.80
2019-02-04T21:10:37.640Z,14.60
2019-02-04T21:13:38.130Z,16.83
2019-02-04T21:16:39.415Z,17.30
2019-02-04T21:19:39.797Z,18.27
2019-02-04T21:22:40.412Z,16.03
2019-02-04T21:25:41.489Z,16.47
2019-02-04T21:28:42.327Z,17.53
2019-02-04T21:31:42.754Z,16.67
2019-02-04T21:34:43.408Z,17.57
2019-02-04T21:37:44.230Z,18.50
2019-02-04T21:40:45.119Z,17.30
2019-02-04T21:43:46.170Z,17.60
2019-02-04T21:46:46.706Z,18.03
2019-02-04T21:49:47.081Z,18.43
2019-02-04T21:52:47.889Z,16.93
2019-02-04T21:55:48.664Z,17.97
2019-02-04T21:58:48.982Z,15.53
2019-02-04T22:01:49.584Z,16.23
2019-02-04T22:04:50.180Z,16.70
2019-02-04T22:07:50.554Z,18.93
2019-02-04T22:10:50.833Z,17.87
2019-02-04T22:13:51.271Z,16.93
2019-02-04T22:16:52.530Z,18.27
2019-02-04T22:19:52.889Z,14.23
2019-02-04T22:22:54.295Z,14.07
2019-02-04T22:25:54.879Z,18.33
2019-02-04T22:28:55.332Z,16.97
2019-02-04T22:31:55.735Z,18.90
2019-02-04T22:34:56.435Z,16.87
2019-02-04T22:37:57.109Z,17.27
2019-02-04T22:40:57.596Z,18.83
2019-02-04T22:43:57.914Z,17.50
2019-02-04T22:46:58.299Z,17.87
2019-02-04T22:49:58.733Z,18.27
2019-02-04T22:53:02.120Z,18.50
2019-02-04T22:56:01.756Z,21.23
2019-02-04T22:58:52.185Z,21.73
2019-02-04T23:02:00.005Z,20.90
2019-02-04T23:05:02.805Z,19.37
2019-02-04T23:07:51.342Z,21.00
2019-02-04T23:10:59.296Z,23.20
2019-02-04T23:14:00.046Z,21.53
2019-02-04T23:17:00.690Z,23.27
2019-02-04T23:20:01.302Z,24.53
2019-02-04T23:23:01.957Z,22.07
2019-02-04T23:26:02.309Z,22.07
2019-02-04T23:29:03.556Z,26.13
2019-02-04T23:32:04.794Z,24.20
2019-02-04T23:34:53.427Z,23.30
2019-02-04T23:38:01.362Z,23.73
2019-02-04T23:41:01.671Z,24.23
2019-02-04T23:44:02.129Z,22.20
2019-02-04T23:47:02.693Z,23.27
2019-02-04T23:50:03.300Z,24.27
2019-02-04T23:53:03.901Z,25.93
2019-02-04T23:56:04.351Z,27.67
2019-02-04T23:59:04.956Z,45.17
